Estación Meteorológica Peña el Pijo (Robertgarden) [ 06/22/17 18:35:00 CEST ]

Fecha Hora Presion(HPa) Temp (°C) Humedad % Rocio (°C) Viento ( m/s) Direccion Lluvia 1Hora(mm) Lluvia 24H(mm) LLuvia Total(mm)
2017-May-11 01:01:49 996.500 13.7 46 2.2         1390.83
2017-May-11 02:01:35 996.000 11.3 51 1.5         1390.83
2017-May-11 03:02:55 995.300 12.6 56 4.0         1390.83
2017-May-11 04:02:56 995.400 13.2 61 5.8 1.1 WNW     1390.83
2017-May-11 05:02:38 994.900 12.5 67 6.5         1390.83
2017-May-11 06:02:41 994.800 12.2 69 6.7         1390.83
2017-May-11 07:01:38 995.000 11.3 73 6.6         1390.83
2017-May-11 08:01:41 996.100 11.9 71 6.8         1390.83
2017-May-11 09:01:46 996.900 11.8 71 6.7         1390.83
2017-May-11 10:01:45 997.000 13.9 63 7.0         1390.83
2017-May-11 11:01:41 997.200 16.5 50 6.0         1390.83
2017-May-11 12:01:36 997.900 14.9 52 5.1         1390.83
2017-May-11 13:01:43 998.200 16.7 50 6.2         1390.83
2017-May-11 14:01:51 998.000 17.9 46 6.0 3.1 WNW     1390.83
2017-May-11 15:01:47 998.100 19.4 38 4.6         1390.83
2017-May-11 16:01:59 997.900 20.7 38 5.8         1390.83
2017-May-11 17:01:48 997.800 17.8 40 4.0         1390.83
2017-May-11 18:01:44 997.700 18.7 42 5.5         1390.83
2017-May-11 19:01:40 998.400 14.6 55 5.6         1390.83
2017-May-11 20:02:07 998.500 14.9 56 6.2         1390.83
2017-May-11 21:01:43 999.400 13.1 64 6.4 1.0 SW     1390.83
2017-May-11 22:01:37 999.400 11.9 64 5.3         1390.83
2017-May-11 23:01:45 999.800 11.5 65 5.1         1390.83

Temperatura Máxima:20°    Temperatura Mínima:11°
Presión Máxima:999.800 Hpa    Presión Mínima:994.800 Hpa


Volver